createdAt,value
2017-07-29T00:00:07.090Z,14.70
2017-07-29T00:02:35.490Z,14.70
2017-07-29T00:05:03.910Z,14.70
2017-07-29T00:07:32.354Z,14.70
2017-07-29T00:10:00.803Z,14.60
2017-07-29T00:12:29.217Z,14.50
2017-07-29T00:14:57.673Z,14.50
2017-07-29T00:17:26.073Z,14.40
2017-07-29T00:19:54.483Z,14.40
2017-07-29T00:22:22.941Z,14.50
2017-07-29T00:24:51.380Z,14.50
2017-07-29T00:27:19.787Z,14.50
2017-07-29T00:29:48.210Z,14.50
2017-07-29T00:32:16.613Z,14.70
2017-07-29T00:34:45.029Z,14.80
2017-07-29T00:37:13.478Z,14.80
2017-07-29T00:39:41.885Z,14.90
2017-07-29T00:42:10.285Z,14.90
2017-07-29T00:44:38.718Z,14.90
2017-07-29T00:47:07.126Z,14.90
2017-07-29T00:49:35.533Z,14.90
2017-07-29T00:52:03.981Z,15.00
2017-07-29T00:54:32.377Z,15.00
2017-07-29T00:57:00.785Z,14.90
2017-07-29T00:59:29.460Z,14.80
2017-07-29T01:01:57.861Z,14.80
2017-07-29T01:04:26.269Z,14.70
2017-07-29T01:06:54.693Z,14.60
2017-07-29T01:09:23.122Z,14.60
2017-07-29T01:11:51.545Z,14.40
2017-07-29T01:14:19.965Z,14.30
2017-07-29T01:16:48.374Z,14.30
2017-07-29T01:19:16.789Z,14.20
2017-07-29T01:21:45.249Z,14.20
2017-07-29T01:24:13.652Z,14.10
2017-07-29T01:26:42.066Z,14.00
2017-07-29T01:29:10.489Z,14.00
2017-07-29T01:31:38.889Z,13.90
2017-07-29T01:34:07.294Z,13.90
2017-07-29T01:36:35.745Z,13.90
2017-07-29T01:39:03.466Z,13.90
2017-07-29T01:41:31.870Z,13.90
2017-07-29T01:44:00.304Z,14.10
2017-07-29T01:46:28.746Z,14.00
2017-07-29T01:48:57.218Z,14.00
2017-07-29T01:51:25.633Z,14.00
2017-07-29T01:53:54.060Z,14.00
2017-07-29T01:56:22.474Z,14.00
2017-07-29T01:58:50.909Z,14.10
2017-07-29T02:01:18.630Z,14.10
2017-07-29T02:03:47.037Z,14.10
2017-07-29T02:06:15.467Z,14.20
2017-07-29T02:08:43.876Z,14.20
2017-07-29T02:11:12.286Z,14.20
2017-07-29T02:13:40.746Z,14.30
2017-07-29T02:16:09.199Z,14.30
2017-07-29T02:18:37.621Z,14.30
2017-07-29T02:21:06.054Z,14.10
2017-07-29T02:23:34.485Z,14.10
2017-07-29T02:26:02.929Z,14.00
2017-07-29T02:28:31.413Z,13.80
2017-07-29T02:30:59.840Z,13.80
2017-07-29T02:33:28.265Z,13.70
2017-07-29T02:35:56.694Z,13.70
2017-07-29T02:38:25.098Z,13.70
2017-07-29T02:40:53.513Z,13.80
2017-07-29T02:43:21.975Z,13.80
2017-07-29T02:45:50.374Z,13.70
2017-07-29T02:48:18.803Z,13.70
2017-07-29T02:50:47.911Z,13.70
2017-07-29T02:53:16.324Z,13.70
2017-07-29T02:55:44.729Z,13.60
2017-07-29T02:58:13.177Z,13.50
2017-07-29T03:00:42.453Z,13.50
2017-07-29T03:03:10.859Z,13.40
2017-07-29T03:05:39.302Z,13.40
2017-07-29T03:08:07.722Z,13.30
2017-07-29T03:10:36.137Z,13.20
2017-07-29T03:13:04.691Z,13.20
2017-07-29T03:15:32.819Z,13.10
2017-07-29T03:18:01.221Z,13.10
2017-07-29T03:20:29.641Z,13.10
2017-07-29T03:22:58.046Z,13.20
2017-07-29T03:25:26.453Z,13.30
2017-07-29T03:27:54.874Z,13.30
2017-07-29T03:30:23.286Z,13.40
2017-07-29T03:32:52.505Z,13.50
2017-07-29T03:35:20.945Z,13.40
2017-07-29T03:37:49.346Z,13.40
2017-07-29T03:40:17.749Z,13.40
2017-07-29T03:42:46.173Z,13.50
2017-07-29T03:45:14.580Z,13.40
2017-07-29T03:47:44.042Z,13.40
2017-07-29T03:50:12.769Z,13.30
2017-07-29T03:52:42.047Z,13.20
2017-07-29T03:55:10.493Z,13.10
2017-07-29T03:57:38.965Z,13.20
2017-07-29T04:00:08.518Z,13.10
2017-07-29T04:02:36.932Z,13.10
2017-07-29T04:05:06.262Z,13.10
2017-07-29T04:07:34.670Z,13.10
2017-07-29T04:10:03.069Z,13.10
2017-07-29T04:12:31.500Z,13.20
2017-07-29T04:14:59.904Z,13.10
2017-07-29T04:17:28.330Z,13.20
2017-07-29T04:19:57.125Z,13.20
2017-07-29T04:22:25.602Z,13.20
2017-07-29T04:24:54.069Z,13.30
2017-07-29T04:27:22.597Z,13.30
2017-07-29T04:29:51.087Z,13.30
2017-07-29T04:32:19.837Z,13.40
2017-07-29T04:34:48.453Z,13.50
2017-07-29T04:37:17.574Z,13.50
2017-07-29T04:39:46.182Z,13.60
2017-07-29T04:42:14.739Z,13.70
2017-07-29T04:44:44.156Z,13.70
2017-07-29T04:47:12.566Z,13.80
2017-07-29T04:49:41.077Z,13.80
2017-07-29T04:52:09.522Z,13.90
2017-07-29T04:54:37.925Z,14.10
2017-07-29T04:57:06.472Z,14.20
2017-07-29T04:59:34.889Z,14.40
2017-07-29T05:02:03.327Z,14.70
2017-07-29T05:04:31.789Z,14.90
2017-07-29T05:07:00.201Z,15.00
2017-07-29T05:09:29.047Z,15.20
2017-07-29T05:11:57.528Z,15.30
2017-07-29T05:14:26.055Z,15.60
2017-07-29T05:16:54.493Z,15.80
2017-07-29T05:19:22.945Z,16.10
2017-07-29T05:21:51.378Z,16.30
2017-07-29T05:24:19.770Z,16.40
2017-07-29T05:26:48.259Z,16.60
2017-07-29T05:29:16.676Z,16.90
2017-07-29T05:31:45.083Z,17.00
2017-07-29T05:34:13.699Z,17.10
2017-07-29T05:36:42.137Z,17.20
2017-07-29T05:39:10.888Z,17.30
2017-07-29T05:41:39.387Z,17.50
2017-07-29T05:44:07.816Z,17.70
2017-07-29T05:46:36.242Z,17.80
2017-07-29T05:49:04.700Z,17.70
2017-07-29T05:51:33.154Z,17.90
2017-07-29T05:54:01.598Z,18.30
2017-07-29T05:56:30.048Z,18.40
2017-07-29T05:58:58.450Z,18.60
2017-07-29T06:01:26.874Z,18.60
2017-07-29T06:03:55.415Z,18.80
2017-07-29T06:06:23.888Z,19.10
2017-07-29T06:08:52.666Z,19.30
2017-07-29T06:11:22.067Z,19.70
2017-07-29T06:13:50.325Z,20.10
2017-07-29T06:16:22.159Z,20.30
2017-07-29T06:18:50.733Z,20.80
2017-07-29T06:21:19.172Z,21.00
2017-07-29T06:23:47.812Z,21.30
2017-07-29T06:26:16.630Z,21.30
2017-07-29T06:28:45.071Z,21.90
2017-07-29T06:33:55.369Z,22.60
2017-07-29T06:36:28.933Z,22.80
2017-07-29T07:29:42.504Z,27.30
2017-07-29T07:32:11.609Z,28.90
2017-07-29T07:34:40.193Z,29.70
2017-07-29T07:37:08.900Z,30.00
2017-07-29T07:42:18.489Z,30.30
2017-07-29T07:44:47.615Z,28.80
2017-07-29T07:47:16.076Z,28.20
2017-07-29T07:49:44.760Z,27.60
2017-07-29T07:52:13.271Z,27.60
2017-07-29T07:54:41.747Z,28.00
2017-07-29T07:57:10.288Z,29.20
2017-07-29T07:59:38.830Z,29.10
2017-07-29T08:02:07.343Z,28.90
2017-07-29T08:04:35.890Z,29.60
2017-07-29T08:07:04.443Z,29.80
2017-07-29T08:09:33.117Z,30.40
2017-07-29T08:12:02.634Z,31.00
2017-07-29T08:14:32.671Z,32.00
2017-07-29T08:17:01.197Z,32.20
2017-07-29T08:19:29.773Z,32.60
2017-07-29T08:21:58.383Z,32.30
2017-07-29T08:24:43.082Z,32.40
2017-07-29T08:27:11.742Z,33.40
2017-07-29T08:32:32.064Z,32.80
2017-07-29T08:35:01.091Z,32.30
2017-07-29T08:41:05.799Z,32.90
2017-07-29T08:43:35.395Z,32.80
2017-07-29T08:46:03.951Z,32.20
2017-07-29T08:48:32.587Z,32.60
2017-07-29T08:51:03.638Z,32.50
2017-07-29T08:53:32.140Z,31.90
2017-07-29T08:56:03.039Z,32.70
2017-07-29T08:58:38.632Z,32.50
2017-07-29T09:01:07.208Z,32.50
2017-07-29T09:03:35.782Z,32.70
2017-07-29T09:06:07.823Z,32.80
2017-07-29T09:08:37.386Z,32.50
2017-07-29T09:11:06.443Z,32.80
2017-07-29T09:13:43.691Z,32.70
2017-07-29T09:16:12.214Z,33.80
2017-07-29T09:18:43.191Z,34.00
2017-07-29T09:21:12.823Z,34.20
2017-07-29T09:23:41.864Z,34.80
2017-07-29T09:26:10.514Z,34.80
2017-07-29T09:28:48.835Z,34.50
2017-07-29T09:31:17.554Z,35.20
2017-07-29T09:33:46.101Z,35.90
2017-07-29T09:36:14.599Z,35.10
2017-07-29T09:38:43.681Z,35.40
2017-07-29T09:41:12.348Z,34.60
2017-07-29T09:43:40.963Z,34.90
2017-07-29T09:46:09.587Z,34.60
2017-07-29T09:48:38.122Z,34.60
2017-07-29T09:51:06.634Z,34.40
2017-07-29T09:53:35.214Z,34.50
2017-07-29T09:56:03.730Z,35.00
2017-07-29T09:58:32.293Z,34.70
2017-07-29T10:01:00.850Z,35.80
2017-07-29T10:03:29.354Z,35.70
2017-07-29T10:05:57.835Z,35.50
2017-07-29T10:08:26.344Z,35.90
2017-07-29T10:10:54.906Z,35.10
2017-07-29T10:13:23.476Z,34.80
2017-07-29T10:15:52.090Z,34.40
2017-07-29T10:18:20.634Z,34.40
2017-07-29T10:23:38.102Z,33.80
2017-07-29T10:26:55.226Z,33.70
2017-07-29T10:33:39.874Z,34.80
2017-07-29T10:36:08.466Z,35.30
2017-07-29T10:38:37.023Z,35.30
2017-07-29T10:41:05.558Z,35.20
2017-07-29T10:43:34.066Z,35.40
2017-07-29T10:46:02.607Z,34.80
2017-07-29T10:48:31.163Z,34.30
2017-07-29T10:50:59.670Z,34.00
2017-07-29T10:53:28.257Z,34.20
2017-07-29T10:55:56.782Z,34.50
2017-07-29T10:58:25.408Z,34.20
2017-07-29T11:00:53.978Z,34.50
2017-07-29T11:03:23.666Z,34.90
2017-07-29T11:05:52.135Z,34.60
2017-07-29T11:08:20.751Z,34.80
2017-07-29T11:10:49.384Z,34.60
2017-07-29T11:13:30.609Z,33.30
2017-07-29T11:15:59.102Z,33.00
2017-07-29T11:18:26.923Z,32.40
2017-07-29T11:23:52.876Z,32.90
2017-07-29T11:26:21.579Z,34.00
2017-07-29T11:28:50.110Z,33.90
2017-07-29T11:31:18.350Z,33.20
2017-07-29T11:33:46.922Z,32.90
2017-07-29T11:36:15.431Z,33.70
2017-07-29T11:38:44.201Z,33.80
2017-07-29T11:41:12.902Z,33.50
2017-07-29T11:43:41.356Z,32.90
2017-07-29T11:46:09.806Z,32.30
2017-07-29T11:48:38.375Z,32.40
2017-07-29T11:51:06.899Z,31.70
2017-07-29T11:53:35.411Z,32.10
2017-07-29T11:56:03.954Z,32.40
2017-07-29T11:58:34.283Z,33.10
2017-07-29T12:01:53.243Z,33.20
2017-07-29T12:04:22.558Z,33.10
2017-07-29T12:06:53.380Z,33.20
2017-07-29T12:09:27.347Z,33.10
2017-07-29T12:11:56.096Z,32.70
2017-07-29T12:14:30.477Z,32.50
2017-07-29T12:17:04.079Z,32.10
2017-07-29T12:22:11.310Z,32.10
2017-07-29T12:24:45.412Z,31.40
2017-07-29T12:27:14.275Z,31.00
2017-07-29T12:29:42.892Z,31.10
2017-07-29T12:32:11.466Z,31.00
2017-07-29T12:34:40.467Z,31.00
2017-07-29T12:37:15.950Z,30.80
2017-07-29T12:39:45.277Z,30.80
2017-07-29T12:42:13.940Z,31.10
2017-07-29T12:44:42.537Z,31.30
2017-07-29T12:47:11.093Z,30.70
2017-07-29T12:49:39.582Z,30.50
2017-07-29T12:52:08.316Z,30.40
2017-07-29T12:54:36.830Z,30.10
2017-07-29T12:57:05.323Z,29.80
2017-07-29T12:59:33.800Z,29.80
2017-07-29T13:02:02.467Z,30.00
2017-07-29T13:04:30.902Z,30.20
2017-07-29T13:07:01.218Z,30.30
2017-07-29T13:09:29.744Z,30.40
2017-07-29T13:11:58.252Z,30.60
2017-07-29T13:14:26.722Z,30.80
2017-07-29T13:16:55.242Z,31.20
2017-07-29T13:19:23.740Z,31.00
2017-07-29T13:21:52.182Z,31.00
2017-07-29T13:24:20.898Z,30.30
2017-07-29T13:26:49.425Z,30.00
2017-07-29T13:29:17.945Z,30.20
2017-07-29T13:31:46.471Z,30.30
2017-07-29T13:34:14.936Z,30.20
2017-07-29T13:36:43.426Z,30.60
2017-07-29T13:39:11.961Z,30.40
2017-07-29T13:41:40.448Z,30.30
2017-07-29T13:44:08.944Z,29.90
2017-07-29T13:46:37.494Z,30.00
2017-07-29T13:49:05.937Z,30.00
2017-07-29T13:51:34.422Z,29.80
2017-07-29T13:54:02.971Z,29.90
2017-07-29T13:56:31.454Z,30.50
2017-07-29T13:58:59.934Z,30.20
2017-07-29T14:01:28.504Z,30.20
2017-07-29T14:03:56.984Z,30.00
2017-07-29T14:06:25.518Z,30.10
2017-07-29T14:08:54.061Z,30.30
2017-07-29T14:11:22.533Z,30.00
2017-07-29T14:13:51.025Z,29.80
2017-07-29T14:16:19.534Z,29.80
2017-07-29T14:18:48.044Z,30.10
2017-07-29T14:21:17.276Z,29.80
2017-07-29T14:23:45.812Z,29.80
2017-07-29T14:26:14.293Z,29.80
2017-07-29T14:28:42.791Z,29.80
2017-07-29T14:31:11.339Z,29.70
2017-07-29T14:33:39.823Z,29.80
2017-07-29T14:36:08.326Z,29.70
2017-07-29T14:38:36.843Z,29.80
2017-07-29T14:41:05.361Z,29.40
2017-07-29T14:43:33.833Z,29.30
2017-07-29T14:46:02.338Z,29.20
2017-07-29T14:48:35.524Z,29.80
2017-07-29T14:51:03.805Z,30.20
2017-07-29T14:53:32.291Z,30.20
2017-07-29T14:56:00.797Z,30.20
2017-07-29T14:58:29.305Z,30.60
2017-07-29T15:00:58.035Z,30.30
2017-07-29T15:03:26.571Z,30.00
2017-07-29T15:05:55.393Z,29.90
2017-07-29T15:08:23.921Z,29.90
2017-07-29T15:10:52.412Z,29.90
2017-07-29T15:13:20.891Z,30.40
2017-07-29T15:15:49.435Z,30.50
2017-07-29T15:18:17.986Z,30.20
2017-07-29T15:20:46.491Z,30.00
2017-07-29T15:23:14.935Z,29.60
2017-07-29T15:25:43.451Z,29.20
2017-07-29T15:28:11.962Z,29.10
2017-07-29T15:30:40.435Z,29.20
2017-07-29T15:33:09.116Z,29.00
2017-07-29T15:35:37.639Z,29.20
2017-07-29T15:38:06.078Z,29.10
2017-07-29T15:40:34.800Z,29.00
2017-07-29T15:43:03.325Z,29.10
2017-07-29T15:45:31.826Z,28.80
2017-07-29T15:48:00.319Z,28.60
2017-07-29T15:50:28.851Z,28.40
2017-07-29T15:52:57.385Z,28.40
2017-07-29T15:55:25.521Z,28.30
2017-07-29T15:57:54.038Z,28.10
2017-07-29T16:00:22.516Z,28.10
2017-07-29T16:02:51.022Z,28.20
2017-07-29T16:05:19.577Z,28.10
2017-07-29T16:07:48.062Z,28.00
2017-07-29T16:10:16.634Z,27.70
2017-07-29T16:12:45.183Z,28.00
2017-07-29T16:15:14.366Z,28.00
2017-07-29T16:17:42.837Z,27.90
2017-07-29T16:20:11.369Z,28.10
2017-07-29T16:22:40.176Z,28.10
2017-07-29T16:25:08.722Z,28.00
2017-07-29T16:27:37.234Z,27.90
2017-07-29T16:30:05.765Z,27.80
2017-07-29T16:32:34.307Z,27.80
2017-07-29T16:35:02.894Z,27.60
2017-07-29T16:37:31.416Z,27.40
2017-07-29T16:39:59.896Z,27.40
2017-07-29T16:42:28.466Z,27.40
2017-07-29T16:44:56.974Z,27.30
2017-07-29T16:47:25.499Z,27.30
2017-07-29T16:49:54.068Z,27.20
2017-07-29T16:52:22.570Z,26.90
2017-07-29T16:54:51.102Z,26.60
2017-07-29T16:57:19.675Z,26.60
2017-07-29T16:59:48.151Z,26.50
2017-07-29T17:02:16.685Z,26.30
2017-07-29T17:04:45.207Z,26.10
2017-07-29T17:07:13.688Z,25.90
2017-07-29T17:09:42.407Z,25.70
2017-07-29T17:12:10.967Z,25.40
2017-07-29T17:14:39.501Z,25.20
2017-07-29T17:17:07.970Z,25.10
2017-07-29T17:19:36.690Z,24.90
2017-07-29T17:22:05.146Z,24.70
2017-07-29T17:24:33.623Z,24.50
2017-07-29T17:27:02.163Z,24.40
2017-07-29T17:29:30.643Z,24.20
2017-07-29T17:31:59.178Z,24.20
2017-07-29T17:34:27.729Z,24.00
2017-07-29T17:36:56.218Z,23.90
2017-07-29T17:39:24.695Z,23.80
2017-07-29T17:41:53.296Z,23.90
2017-07-29T17:44:21.775Z,23.80
2017-07-29T17:46:50.287Z,23.70
2017-07-29T17:49:18.815Z,23.60
2017-07-29T17:51:47.523Z,23.60
2017-07-29T17:54:15.994Z,23.50
2017-07-29T17:56:44.582Z,23.50
2017-07-29T17:59:13.064Z,23.40
2017-07-29T18:01:41.627Z,23.40
2017-07-29T18:04:10.156Z,23.20
2017-07-29T18:06:38.683Z,23.10
2017-07-29T18:09:07.234Z,23.00
2017-07-29T18:11:35.739Z,22.80
2017-07-29T18:14:04.282Z,22.70
2017-07-29T18:16:32.798Z,22.60
2017-07-29T18:19:01.494Z,22.40
2017-07-29T18:21:30.171Z,22.20
2017-07-29T18:23:58.772Z,22.00
2017-07-29T18:26:27.309Z,21.80
2017-07-29T18:28:55.836Z,21.70
2017-07-29T18:31:24.376Z,21.50
2017-07-29T18:33:53.121Z,21.30
2017-07-29T18:37:12.896Z,21.30
2017-07-29T18:39:41.447Z,21.10
2017-07-29T18:42:09.901Z,21.00
2017-07-29T18:44:38.448Z,20.90
2017-07-29T18:47:07.298Z,20.80
2017-07-29T18:49:35.837Z,20.60
2017-07-29T18:52:04.340Z,20.50
2017-07-29T18:54:32.885Z,20.40
2017-07-29T18:57:01.374Z,20.30
2017-07-29T18:59:29.987Z,20.10
2017-07-29T19:01:58.630Z,20.10
2017-07-29T19:04:27.944Z,20.00
2017-07-29T19:06:56.530Z,20.00
2017-07-29T19:09:25.833Z,19.90
2017-07-29T19:11:54.192Z,19.80
2017-07-29T19:14:22.744Z,19.80
2017-07-29T19:16:51.269Z,19.80
2017-07-29T19:19:19.734Z,19.70
2017-07-29T19:21:48.181Z,19.70
2017-07-29T19:24:16.723Z,19.60
2017-07-29T19:26:45.227Z,19.50
2017-07-29T19:29:13.713Z,19.40
2017-07-29T19:31:43.354Z,19.30
2017-07-29T19:34:11.839Z,19.20
2017-07-29T19:36:40.295Z,19.10
2017-07-29T19:39:08.823Z,19.10
2017-07-29T19:41:37.310Z,19.00
2017-07-29T19:44:05.798Z,18.90
2017-07-29T19:46:34.319Z,19.00
2017-07-29T19:49:04.606Z,18.90
2017-07-29T19:51:33.186Z,19.00
2017-07-29T19:54:02.604Z,19.00
2017-07-29T19:56:31.975Z,18.90
2017-07-29T19:59:02.455Z,18.90
2017-07-29T20:01:33.440Z,18.80
2017-07-29T20:04:01.931Z,18.70
2017-07-29T20:06:31.245Z,18.60
2017-07-29T20:08:59.920Z,18.50
2017-07-29T20:11:28.513Z,18.50
2017-07-29T20:14:00.747Z,18.50
2017-07-29T20:16:29.511Z,18.40
2017-07-29T20:19:02.368Z,18.30
2017-07-29T20:21:32.541Z,18.20
2017-07-29T20:24:03.517Z,18.10
2017-07-29T20:26:32.130Z,18.10
2017-07-29T20:29:00.837Z,18.10
2017-07-29T20:31:29.384Z,18.20
2017-07-29T20:33:57.844Z,18.10
2017-07-29T20:36:26.989Z,18.00
2017-07-29T20:38:55.498Z,18.00
2017-07-29T20:41:23.970Z,18.00
2017-07-29T20:43:52.684Z,18.00
2017-07-29T20:46:21.152Z,17.90
2017-07-29T20:48:49.637Z,17.90
2017-07-29T20:51:18.106Z,17.80
2017-07-29T20:53:46.601Z,17.70
2017-07-29T20:56:15.099Z,17.70
2017-07-29T20:58:43.385Z,17.70
2017-07-29T21:01:11.824Z,17.50
2017-07-29T21:03:40.296Z,17.50
2017-07-29T21:06:08.862Z,17.40
2017-07-29T21:08:37.320Z,17.40
2017-07-29T21:11:05.794Z,17.40
2017-07-29T21:13:34.483Z,17.40
2017-07-29T21:16:02.942Z,17.40
2017-07-29T21:18:31.454Z,17.40
2017-07-29T21:20:59.965Z,17.40
2017-07-29T21:23:28.451Z,17.40
2017-07-29T21:25:56.946Z,17.40
2017-07-29T21:28:26.225Z,17.40
2017-07-29T21:30:54.679Z,17.30
2017-07-29T21:33:23.146Z,17.20
2017-07-29T21:35:51.670Z,17.20
2017-07-29T21:38:20.161Z,17.20
2017-07-29T21:40:48.635Z,17.10
2017-07-29T21:43:17.135Z,17.10
2017-07-29T21:45:45.575Z,17.00
2017-07-29T21:48:14.056Z,17.00
2017-07-29T21:50:42.539Z,17.00
2017-07-29T21:53:11.034Z,17.10
2017-07-29T21:55:39.519Z,17.00
2017-07-29T21:58:08.018Z,17.00
2017-07-29T22:00:36.550Z,17.00
2017-07-29T22:03:05.064Z,17.00
2017-07-29T22:05:33.564Z,16.90
2017-07-29T22:08:02.058Z,16.90
2017-07-29T22:10:30.526Z,16.80
2017-07-29T22:12:59.014Z,16.90
2017-07-29T22:15:27.522Z,16.90
2017-07-29T22:17:56.051Z,17.00
2017-07-29T22:20:24.590Z,16.90
2017-07-29T22:22:53.086Z,16.90
2017-07-29T22:25:21.569Z,16.90
2017-07-29T22:27:50.082Z,16.90
2017-07-29T22:30:18.567Z,16.90
2017-07-29T22:32:47.008Z,16.80
2017-07-29T22:35:15.489Z,16.70
2017-07-29T22:37:43.966Z,16.80
2017-07-29T22:40:12.435Z,16.70
2017-07-29T22:42:40.968Z,16.60
2017-07-29T22:45:09.458Z,16.70
2017-07-29T22:47:37.928Z,16.60
2017-07-29T22:50:06.466Z,16.60
2017-07-29T22:52:34.994Z,16.60
2017-07-29T22:55:03.514Z,16.60
2017-07-29T22:57:32.036Z,16.50
2017-07-29T23:00:00.538Z,16.50
2017-07-29T23:02:29.046Z,16.50
2017-07-29T23:04:57.551Z,16.50
2017-07-29T23:07:26.077Z,16.50
2017-07-29T23:09:54.565Z,16.50
2017-07-29T23:12:23.142Z,16.50
2017-07-29T23:14:51.638Z,16.60
2017-07-29T23:17:20.099Z,16.60
2017-07-29T23:19:48.786Z,16.60
2017-07-29T23:22:28.290Z,16.60
2017-07-29T23:24:57.626Z,16.50
2017-07-29T23:27:26.126Z,16.50
2017-07-29T23:29:54.553Z,16.40
2017-07-29T23:32:23.039Z,16.40
2017-07-29T23:34:51.526Z,16.40
2017-07-29T23:37:19.998Z,16.40
2017-07-29T23:39:48.541Z,16.30
2017-07-29T23:42:17.043Z,16.30
2017-07-29T23:44:45.485Z,16.30
2017-07-29T23:47:13.961Z,16.30
2017-07-29T23:49:42.435Z,16.30
2017-07-29T23:52:10.940Z,16.20
2017-07-29T23:54:39.465Z,16.20
2017-07-29T23:57:07.910Z,16.20
2017-07-29T23:59:36.398Z,16.10
